Latest Coastal Weather Observations for Ulladulla

IDN60701

Issued at 11:31 pm EDT Monday 5 December 2016 (issued every 10 minutes, with the page automatically refreshed every 10 minutes)

About coastal observations | Map of coastal stations | Coastal observations for NSW | Marine services | Other Formats
Station Details ID: 069138 Name: ULLADULLA AWS Lat: -35.36 Lon: 150.48 Height: 35.7 m
Data from the previous 72 hours. | See also: Recent months at Ulladulla
Date/Time
EDT
Temp
°C
Wind Pressure Rain since
9am
mm
Weather Cloud Vis
km
Sea
Height
m
Swell
Dir  Spd
kts
Gust
kts
hPa Trend Height
m
Period
s
Dir
05/11:30pm 19.6 S 2 3 1013.6 - 0.6 - - - - - - -
05/11:00pm 19.4 S 1 3 1013.8 - 0.6 - - - - - - -
05/10:30pm 19.4 S 5 7 1013.8 - 0.6 - - - - - - -
05/10:00pm 19.4 S 8 11 1014.4 - 0.6 - - - - - - -
05/09:30pm 19.6 S 7 12 1014.5 - 0.6 - - - - - - -
05/09:00pm 20.2 S 12 15 1014.3 - 0.0 - - - - - - -
05/08:30pm 20.1 S 14 19 1014.2 - 0.0 - - - - - - -
05/08:00pm 20.1 S 20 26 1013.5 - 0.0 - - - - - - -
05/07:30pm 20.7 S 21 27 1012.2 - 0.0 - - - - - - -
05/07:00pm 21.0 S 20 26 1011.2 - 0.0 - - - - - - -
05/06:30pm 21.1 SSW 12 20 1010.4 - 0.0 - - - - - - -
05/06:00pm 21.6 S 15 23 1009.1 - 0.0 - - - - - - -
05/05:30pm 22.8 S 18 26 1007.8 - 0.0 - - - - - - -
05/05:24pm 23.1 SSW 16 26 1007.6 - 0.0 - - - - - - -
05/05:00pm 24.1 S 8 23 1007.4 - 0.0 - - - - - - -
05/04:58pm 24.3 SW 6 23 1007.3 - 0.0 - - - - - - -
05/04:30pm 28.0 NE 1 2 1006.6 - 0.0 - - - - - - -
05/04:00pm 26.9 CALM 0 2 1006.7 - 0.0 - - - - - - -
05/03:30pm 25.1 N 5 6 1006.6 - 0.0 - - - - - - -
05/03:00pm 24.2 NE 4 7 1006.8 - 0.0 - - - - - - -
05/02:30pm 24.6 NE 5 8 1006.4 - 0.0 - - - - - - -
05/02:00pm 26.2 NNE 4 5 1006.5 - 0.0 - - - - - - -
05/01:30pm 25.4 NNW 2 6 1006.7 - 0.0 - - - - - - -
05/01:00pm 25.3 N 4 6 1006.7 - 0.0 - - - - - - -
05/12:30pm 24.9 E 3 5 1007.2 - 0.0 - - - - - - -
05/12:00pm 23.3 SSE 2 3 1007.3 - 0.0 - - - - - - -
05/11:30am 22.8 SSE 4 7 1007.5 - 0.0 - - - - - - -
05/11:00am 23.4 SSE 4 7 1007.8 - 0.0 - - - - - - -
05/10:30am 23.3 CALM 0 3 1007.7 - 0.0 - - - - - - -
05/10:00am 22.2 N 5 8 1007.5 - 0.0 - - - - - - -
05/09:30am 21.4 N 2 5 1008.0 - 0.0 - - - - - - -
05/09:00am 21.6 NE 5 13 1008.3 - 0.0 - - - - - - -
05/08:30am 22.1 WNW 2 4 1008.3 - 0.0 - - - - - - -
05/08:00am 22.2 WSW 3 5 1008.4 - 0.0 - - - - - - -
05/07:30am 21.2 SSE 1 2 1008.5 - 0.0 - - - - - - -
05/07:00am 21.1 CALM 0 2 1008.7 - 0.0 - - - - - - -
05/06:30am 20.8 NW 4 7 1008.6 - 0.0 - - - - - - -
05/06:00am 20.6 NE 4 7 1008.0 - 0.0 - - - - - - -
05/05:30am 20.5 NE 3 5 1008.9 - 0.0 - - - - - - -
05/05:00am 20.5 SSE 3 6 1009.4 - 0.0 - - - - - - -
05/04:30am 20.8 WSW 3 5 1009.5 - 0.0 - - - - - - -
05/04:00am 20.8 W 1 3 1008.7 - 0.0 - - - - - - -
05/03:30am 20.9 CALM 0 0 1008.2 - 0.0 - - - - - - -
05/03:00am 20.9 N 1 2 1008.6 - 0.0 - - - - - - -
05/02:30am 21.0 N 3 5 1009.2 - 0.0 - - - - - - -
05/02:00am 21.0 N 4 8 1009.1 - 0.0 - - - - - - -
05/01:30am 20.9 NE 4 7 1009.6 - 0.0 - - - - - - -
05/01:00am 21.0 NNE 3 6 1010.0 - 0.0 - - - - - - -
05/12:30am 21.0 N 2 4 1010.4 - 0.0 - - - - - - -
05/12:00am 21.1 NNE 1 2 1010.5 - 0.0 - - - - - - -
 
Date/Time
EDT
Temp
°C
Wind Pressure Rain since
9am
mm
Weather Cloud Vis
km
Sea
Height
m
Swell
Dir  Spd
kts
Gust
kts
hPa Trend Height
m
Period
s
Dir
04/11:30pm 21.1 NNW 3 6 1010.4 - 0.0 - - - - - - -
04/11:00pm 21.2 NNW 4 6 1010.6 - 0.0 - - - - - - -
04/10:30pm 21.4 NNW 1 3 1010.9 - 0.0 - - - - - - -
04/10:00pm 21.5 N 7 11 1011.1 - 0.0 - - - - - - -
04/09:30pm 21.4 NNW 5 8 1010.8 - 0.0 - - - - - - -
04/09:00pm 21.5 N 3 7 1010.4 - 0.0 - - - - - - -
04/08:30pm 21.5 NNE 4 10 1011.0 - 0.0 - - - - - - -
04/08:00pm 21.6 N 4 9 1011.4 - 0.0 - - - - - - -
04/07:30pm 21.6 NNE 3 6 1011.2 - 0.0 - - - - - - -
04/07:00pm 21.7 NNW 3 7 1011.0 - 0.0 - - - - - - -
04/06:30pm 21.9 NE 6 11 1010.9 - 0.0 - - - - - - -
04/06:00pm 22.0 NE 9 15 1010.6 - 0.0 - - - - - - -
04/05:30pm 22.2 NE 7 15 1010.8 - 0.0 - - - - - - -
04/05:00pm 21.8 NNE 13 17 1011.2 - 0.0 - - - - - - -
04/04:30pm 22.7 NNE 9 14 1011.4 - 0.0 - - - - - - -
04/04:00pm 22.4 NNE 12 16 1011.7 - 0.0 - - - - - - -
04/03:30pm 21.9 NE 14 17 1011.9 - 0.0 - - - - - - -
04/03:00pm 22.0 NNE 11 18 1012.1 - 0.0 - - - - - - -
04/02:30pm 21.8 NNE 11 16 1012.3 - 0.0 - - - - - - -
04/02:00pm 22.2 NE 10 17 1012.7 - 0.0 - - - - - - -
04/01:30pm 22.7 NE 9 15 1013.0 - 0.0 - - - - - - -
04/01:00pm 23.4 NE 8 14 1013.5 - 0.0 - - - - - - -
04/12:30pm 23.1 NE 7 11 1014.0 - 0.0 - - - - - - -
04/12:00pm 23.1 NE 7 12 1014.0 - 0.0 - - - - - - -
04/11:30am 22.6 ENE 6 10 1014.6 - 0.0 - - - - - - -
04/11:00am 22.4 ENE 6 9 1014.7 - 0.0 - - - - - - -
04/10:30am 22.3 ENE 4 6 1015.0 - 0.0 - - - - - - -
04/10:00am 21.8 NE 5 7 1015.2 - 0.0 - - - - - - -
04/09:30am 20.9 NNE 4 6 1015.3 - 0.0 - - - - - - -
04/09:00am 20.6 NNE 3 5 1015.6 - 0.0 - - - - - - -
04/08:30am 19.9 NNE 4 5 1015.7 - 0.0 - - - - - - -
04/08:00am 19.7 N 5 8 1015.9 - 0.0 - - - - - - -
04/07:30am 19.5 NNW 3 5 1015.8 - 0.0 - - - - - - -
04/07:00am 19.0 NW 1 3 1015.5 - 0.0 - - - - - - -
04/06:30am 18.8 NW 3 4 1015.3 - 0.0 - - - - - - -
04/06:00am 18.8 NNW 2 4 1015.2 - 0.0 - - - - - - -
04/05:30am 18.8 N 3 4 1015.4 - 0.0 - - - - - - -
04/05:00am 18.6 NNE 1 2 1015.3 - 0.0 - - - - - - -
04/04:30am 18.6 N 3 5 1015.3 - 0.0 - - - - - - -
04/04:00am 18.7 N 2 3 1015.5 - 0.0 - - - - - - -
04/03:30am 18.7 CALM 0 0 1015.6 - 0.0 - - - - - - -
04/03:00am 18.8 CALM 0 2 1015.9 - 0.0 - - - - - - -
04/02:30am 19.0 N 3 5 1015.9 - 0.0 - - - - - - -
04/02:00am 19.5 NNE 5 9 1016.2 - 0.0 - - - - - - -
04/01:30am 19.9 NE 3 5 1016.3 - 0.0 - - - - - - -
04/01:00am 19.9 NE 4 7 1016.5 - 0.0 - - - - - - -
04/12:30am 19.9 NNE 4 7 1016.5 - 0.0 - - - - - - -
04/12:00am 19.8 NE 3 6 1016.7 - 0.0 - - - - - - -
 
Date/Time
EDT
Temp
°C
Wind Pressure Rain since
9am
mm
Weather Cloud Vis
km
Sea
Height
m
Swell
Dir  Spd
kts
Gust
kts
hPa Trend Height
m
Period
s
Dir
03/11:30pm 19.8 NE 3 5 1016.8 - 0.0 - - - - - - -
03/11:00pm 19.8 NE 4 6 1016.8 - 0.0 - - - - - - -
03/10:30pm 19.9 ENE 3 5 1016.7 - 0.0 - - - - - - -
03/10:00pm 20.0 NE 4 6 1016.7 - 0.0 - - - - - - -
03/09:30pm 20.0 NE 3 6 1016.5 - 0.0 - - - - - - -
03/09:00pm 20.1 NE 3 5 1016.2 - 0.0 - - - - - - -
03/08:30pm 20.1 NE 3 6 1016.0 - 0.0 - - - - - - -
03/08:00pm 20.1 ENE 4 7 1015.8 - 0.0 - - - - - - -
03/07:30pm 20.2 NE 5 8 1015.5 - 0.0 - - - - - - -
03/07:00pm 20.4 NE 5 9 1015.3 - 0.0 - - - - - - -
03/06:30pm 20.4 ENE 6 10 1014.8 - 0.0 - - - - - - -
03/06:00pm 21.1 ENE 8 13 1014.3 - 0.0 - - - - - - -
03/05:30pm 21.2 NE 8 13 1014.2 - 0.0 - - - - - - -
03/05:00pm 21.5 NE 8 14 1014.0 - 0.0 - - - - - - -
03/04:30pm 21.1 NE 9 15 1014.0 - 0.0 - - - - - - -
03/04:00pm 21.3 NE 9 14 1014.0 - 0.0 - - - - - - -
03/03:30pm 21.8 NE 8 15 1014.2 - 0.0 - - - - - - -
03/03:00pm 21.7 NE 7 11 1014.4 - 0.0 - - - - - - -
03/02:30pm 21.9 NE 8 12 1014.5 - 0.0 - - - - - - -
03/02:00pm 22.0 NE 7 11 1014.9 - 0.0 - - - - - - -
03/01:30pm 21.4 NNE 6 9 1015.3 - 0.0 - - - - - - -
03/01:00pm 22.0 ENE 4 8 1015.8 - 0.0 - - - - - - -
03/12:30pm 21.8 ESE 3 5 1016.0 - 0.0 - - - - - - -
03/12:00pm 20.8 SSE 4 5 1016.3 - 0.0 - - - - - - -
03/11:30am 20.4 SE 3 4 1016.5 - 0.0 - - - - - - -
03/11:00am 20.2 SSE 3 4 1016.8 - 0.0 - - - - - - -
03/10:30am 20.1 SSE 3 4 1016.8 - 0.0 - - - - - - -
03/10:00am 19.8 SSE 2 3 1016.9 - 0.0 - - - - - - -
03/09:30am 19.9 S 3 5 1016.8 - 0.0 - - - - - - -
03/09:00am 19.8 SSW 4 6 1016.5 - 0.0 - - - - - - -
03/08:30am 19.8 SSW 3 5 1016.6 - 0.0 - - - - - - -
03/08:00am 19.1 SSW 3 5 1016.5 - 0.0 - - - - - - -
03/07:30am 19.0 SW 2 4 1016.4 - 0.0 - - - - - - -
03/07:00am 18.6 SW 2 4 1016.0 - 0.0 - - - - - - -
03/06:30am 18.4 WSW 3 5 1015.6 - 0.0 - - - - - - -
03/06:00am 18.2 SW 4 7 1015.0 - 0.0 - - - - - - -
03/05:30am 18.1 SW 3 5 1014.8 - 0.0 - - - - - - -
03/05:00am 18.0 SW 4 6 1014.3 - 0.0 - - - - - - -
03/04:30am 18.1 SW 6 9 1014.0 - 0.0 - - - - - - -
03/04:00am 18.3 SW 6 9 1014.0 - 0.0 - - - - - - -
03/03:30am 18.5 SSW 5 8 1014.1 - 0.0 - - - - - - -
03/03:00am 18.8 SSW 7 12 1014.2 - 0.0 - - - - - - -
03/02:30am 19.1 SSW 8 13 1014.4 - 0.0 - - - - - - -
03/02:00am 19.0 SSW 6 9 1014.5 - 0.0 - - - - - - -
03/01:30am 19.2 SW 4 7 1014.9 - 0.0 - - - - - - -
03/01:00am 19.7 SSW 5 7 1015.2 - 0.0 - - - - - - -
03/12:30am 19.7 S 8 10 1015.2 - 0.0 - - - - - - -
03/12:00am 19.7 S 9 12 1015.3 - 0.0 - - - - - - -

Other Formats:

Comma delimited format used in spreadsheet applications
http://www.bom.gov.au/fwo/IDN60701/IDN60701.94938.axf

JavaScript Object Notation format (JSON) in row-major order
http://www.bom.gov.au/fwo/IDN60701/IDN60701.94938.json